Latest Weather Observations for Delamere

IDD60801

Issued at 11:01 am CST Monday 25 May 2015 (issued every 30 minutes, with the page automatically refreshed every 10 minutes)

About weather observations | Map of weather stations | Latest weather observations for NT | Other Formats
Station Details ID: 014949 Name: DELAMERE WEAPONS RANGE Lat: -15.74 Lon: 131.92 Height: 221.0 m
Data from the previous 72 hours. | See also: Recent months at Delamere
Date/Time
CST
Temp
°C
App
Temp
°C
Dew
Point
Rel
Hum
%
Delta-T
°C
Wind Press
QNH
hPa
Press
MSL
hPa
Rain
since 9 am
mm
Dir
 
Spd
km/h
Gust
km/h
Spd
kts
Gust
kts
25/11:00am 26.5 22.2 3.1 22 11.6 E 15 20 8 11 1018.7 - 0.0
25/10:30am 25.6 20.9 1.0 20 11.7 E 15 20 8 11 1018.9 - 0.0
25/10:00am 24.1 19.1 1.1 22 10.8 E 17 24 9 13 1019.2 - 0.0
25/09:30am 22.9 17.9 1.3 24 10.1 E 17 26 9 14 1019.2 - 0.0
25/09:00am 21.3 16.2 1.0 26 9.3 ESE 17 26 9 14 1019.2 1018.1 0.0
25/08:30am 19.0 14.3 1.1 30 8.1 ESE 15 20 8 11 1018.9 - 0.0
25/08:00am 16.8 12.9 0.9 34 7.0 ESE 11 15 6 8 1018.8 - 0.0
25/07:30am 15.3 11.8 1.1 38 6.2 ESE 9 15 5 8 1018.5 - 0.0
25/07:00am 13.9 10.4 1.5 43 5.4 SE 9 11 5 6 1018.4 - 0.0
25/06:30am 13.9 10.8 1.5 43 5.4 SE 7 11 4 6 1018.1 - 0.0
25/06:00am 13.8 10.7 1.5 43 5.4 SE 7 11 4 6 1017.8 1016.8 0.0
25/05:30am 14.4 10.9 1.3 41 5.7 ESE 9 11 5 6 1017.5 - 0.0
25/05:00am 14.7 11.2 1.3 40 5.9 E 9 13 5 7 1017.0 - 0.0
25/04:30am 15.6 11.7 1.0 37 6.4 E 11 15 6 8 1016.9 - 0.0
25/04:00am 15.7 12.2 1.1 37 6.4 E 9 13 5 7 1016.8 - 0.0
25/03:30am 16.3 12.7 0.8 35 6.8 ESE 9 13 5 7 1017.0 - 0.0
25/03:00am 16.8 13.3 1.3 35 6.9 SE 9 13 5 7 1017.0 1016.0 0.0
25/02:30am 16.8 13.3 1.3 35 6.9 ESE 9 11 5 6 1017.3 - 0.0
25/02:00am 16.4 13.4 1.7 37 6.6 ESE 7 7 4 4 1017.6 - 0.0
25/01:30am 17.4 14.4 1.8 35 7.1 ESE 7 9 4 5 1017.6 - 0.0
25/01:00am 18.1 15.0 1.6 33 7.5 ESE 7 9 4 5 1018.0 - 0.0
25/12:30am 19.5 16.0 1.5 30 8.3 ESE 9 13 5 7 1018.0 - 0.0
25/12:00am 21.0 16.0 1.3 27 9.1 SE 17 24 9 13 1018.0 1017.0 0.0
 
Date/Time
CST
Temp
°C
App
Temp
°C
Dew
Point
Rel
Hum
%
Delta-T
°C
Wind Press
QNH
hPa
Press
MSL
hPa
Rain
since 9 am
mm
Dir
 
Spd
km/h
Gust
km/h
Spd
kts
Gust
kts
24/11:30pm 20.7 16.5 1.6 28 8.9 SE 13 17 7 9 1018.0 - 0.0
24/11:00pm 21.4 16.9 2.2 28 9.1 SSE 15 20 8 11 1017.9 - 0.0
24/10:30pm 17.6 15.2 4.5 42 6.3 ESE 6 7 3 4 1017.8 - 0.0
24/10:00pm 18.5 16.0 4.7 40 6.7 SE 7 9 4 5 1017.7 - 0.0
24/09:30pm 18.8 16.2 4.2 38 7.0 SE 7 9 4 5 1017.5 - 0.0
24/09:00pm 19.3 18.0 3.9 36 7.4 CALM 0 0 0 0 1017.1 1016.1 0.0
24/08:30pm 20.6 18.9 4.2 34 8.0 E 2 6 1 3 1016.9 - 0.0
24/08:00pm 21.2 18.6 3.4 31 8.6 E 6 6 3 3 1016.6 - 0.0
24/07:30pm 22.5 19.8 3.6 29 9.2 ESE 7 9 4 5 1016.2 - 0.0
24/07:00pm 24.0 21.2 3.3 26 10.2 SSE 7 9 4 5 1015.9 - 0.0
24/06:30pm 25.5 23.0 3.5 24 10.9 SE 6 7 3 4 1015.5 - 0.0
24/06:00pm 27.4 24.1 2.5 20 12.3 ESE 9 11 5 6 1015.1 1014.0 0.0
24/05:30pm 28.5 24.7 1.9 18 13.1 ESE 11 15 6 8 1014.9 - 0.0
24/05:00pm 29.1 25.3 1.6 17 13.6 SE 11 17 6 9 1014.7 - 0.0
24/04:30pm 29.2 24.9 0.8 16 13.8 SE 13 19 7 10 1014.5 - 0.0
24/04:00pm 29.4 25.2 1.8 17 13.7 SE 13 20 7 11 1014.2 - 0.0
24/03:30pm 29.9 26.0 1.4 16 14.1 S 11 15 6 8 1014.2 - 0.0
24/03:00pm 28.8 24.8 0.5 16 13.7 ESE 11 19 6 10 1014.6 1013.5 0.0
24/02:30pm 29.3 26.3 1.7 17 13.6 ESE 7 13 4 7 1014.8 - 0.0
24/02:00pm 28.5 23.8 1.1 17 13.3 E 15 20 8 11 1015.3 - 0.0
24/01:30pm 27.8 23.7 -0.3 16 13.3 E 11 19 6 10 1015.7 - 0.0
24/01:00pm 26.7 22.3 0.4 18 12.5 ENE 13 24 7 13 1016.2 - 0.0
24/12:30pm 26.7 21.9 0.4 18 12.5 E 15 22 8 12 1016.7 - 0.0
24/12:00pm 25.5 21.2 0.9 20 11.7 E 13 20 7 11 1017.3 1016.3 0.0
24/11:30am 25.2 20.7 2.0 22 11.2 E 15 24 8 13 1017.5 - 0.0
24/11:00am 24.5 19.5 1.4 22 11.0 E 17 20 9 11 1017.9 - 0.0
24/10:30am 23.2 17.8 1.5 24 10.2 E 19 26 10 14 1018.1 - 0.0
24/10:00am 21.6 16.0 1.3 26 9.4 E 20 26 11 14 1018.3 - 0.0
24/09:30am 20.0 14.4 1.4 29 8.5 E 20 28 11 15 1018.2 - 0.0
24/09:00am 19.2 13.7 1.7 31 8.0 E 20 32 11 17 1018.4 1017.4 0.0
24/08:30am 17.8 12.4 1.3 33 7.4 ESE 19 26 10 14 1018.1 - 0.0
24/08:00am 16.5 12.1 0.6 34 7.0 E 13 20 7 11 1018.0 - 0.0
24/07:30am 15.6 11.6 0.6 36 6.5 E 11 15 6 8 1017.9 - 0.0
24/07:00am 15.1 11.1 0.5 37 6.3 E 11 15 6 8 1017.7 - 0.0
24/06:30am 15.4 11.4 0.4 36 6.5 E 11 17 6 9 1017.4 - 0.0
24/06:00am 16.1 12.1 0.3 34 6.9 E 11 17 6 9 1017.1 1016.1 0.0
24/05:30am 16.8 12.0 0.0 32 7.3 ESE 15 20 8 11 1017.0 - 0.0
24/05:00am 16.9 12.1 0.1 32 7.3 ESE 15 19 8 10 1016.8 - 0.0
24/04:30am 17.0 12.6 0.2 32 7.3 ESE 13 20 7 11 1017.0 - 0.0
24/04:00am 17.3 12.8 0.0 31 7.6 ESE 13 17 7 9 1016.9 - 0.0
24/03:30am 18.0 13.5 -0.3 29 8.0 ESE 13 20 7 11 1017.1 - 0.0
24/03:00am 18.6 13.7 -0.2 28 8.3 ESE 15 20 8 11 1017.2 1016.2 0.0
24/02:30am 18.9 13.7 0.0 28 8.4 ESE 17 24 9 13 1017.1 - 0.0
24/02:00am 19.0 14.2 0.1 28 8.4 SE 15 22 8 12 1017.2 - 0.0
24/01:30am 18.9 14.1 0.0 28 8.4 SE 15 20 8 11 1017.2 - 0.0
24/01:00am 19.4 14.2 -0.1 27 8.7 SE 17 22 9 12 1017.0 - 0.0
24/12:30am 20.2 15.0 0.1 26 9.0 SE 17 24 9 13 1017.3 - 0.0
24/12:00am 20.8 15.6 0.1 25 9.3 SE 17 26 9 14 1017.3 1016.3 0.0
 
Date/Time
CST
Temp
°C
App
Temp
°C
Dew
Point
Rel
Hum
%
Delta-T
°C
Wind Press
QNH
hPa
Press
MSL
hPa
Rain
since 9 am
mm
Dir
 
Spd
km/h
Gust
km/h
Spd
kts
Gust
kts
23/11:30pm 21.0 15.9 0.8 26 9.2 SE 17 22 9 12 1017.3 - 0.0
23/11:00pm 21.1 16.1 1.4 27 9.1 SSE 17 24 9 13 1017.4 - 0.0
23/10:30pm 21.3 17.2 2.1 28 9.0 SSE 13 20 7 11 1017.4 - 0.0
23/10:00pm 21.7 17.6 2.4 28 9.2 SSE 13 19 7 10 1017.3 - 0.0
23/09:30pm 22.3 18.4 3.4 29 9.2 SSE 13 19 7 10 1017.3 - 0.0
23/09:00pm 22.6 19.2 4.2 30 9.1 SSE 11 15 6 8 1017.2 1016.2 0.0
23/08:30pm 23.2 19.5 4.7 30 9.3 SSE 13 17 7 9 1016.9 - 0.0
23/08:00pm 23.3 20.3 6.1 33 8.9 SE 11 15 6 8 1016.5 - 0.0
23/07:30pm 23.7 21.6 6.5 33 8.9 SE 7 11 4 6 1016.1 - 0.0
23/07:00pm 24.4 22.3 6.6 32 9.3 SE 7 9 4 5 1015.7 - 0.0
23/06:30pm 25.5 23.3 6.2 29 10.1 SSE 7 7 4 4 1015.6 - 0.0
23/06:00pm 27.0 24.4 5.9 26 11.1 SE 9 15 5 8 1015.4 1014.3 0.0
23/05:30pm 28.2 25.3 6.3 25 11.6 SE 11 15 6 8 1015.1 - 0.0
23/05:00pm 28.2 24.6 5.1 23 12.0 SE 13 19 7 10 1015.0 - 0.0
23/04:30pm 28.1 24.5 5.0 23 12.0 SE 13 20 7 11 1015.0 - 0.0
23/04:00pm 28.1 24.4 4.4 22 12.2 SE 13 22 7 12 1015.1 - 0.0
23/03:30pm 28.2 25.0 5.1 23 12.0 SE 11 17 6 9 1015.2 - 0.0
23/03:00pm 28.0 24.9 3.7 21 12.3 ESE 9 13 5 7 1015.5 1014.4 0.0
23/02:30pm 27.8 23.5 3.5 21 12.3 ESE 15 20 8 11 1015.9 - 0.0
23/02:00pm 27.3 23.3 3.1 21 12.1 SE 13 24 7 13 1016.4 - 0.0
23/01:30pm 26.4 22.7 2.3 21 11.8 ESE 11 19 6 10 1017.0 - 0.0
23/01:00pm 26.2 21.6 1.5 20 11.9 SE 15 20 8 11 1017.5 - 0.0
23/12:30pm 26.0 20.6 1.3 20 11.9 E 19 26 10 14 1017.8 - 0.0
23/12:00pm 25.2 20.5 0.7 20 11.5 E 15 24 8 13 1018.5 1017.5 0.0
23/11:30am 24.4 19.7 0.7 21 11.1 E 15 24 8 13 1018.8 - 0.0
23/11:00am 23.5 18.3 -0.1 21 10.8 ESE 17 22 9 12 1019.4 - 0.0
23/10:30am 22.6 16.7 -0.8 21 10.5 E 20 28 11 15 1019.7 - 0.0
23/10:00am 21.9 16.6 -0.8 22 10.1 E 17 22 9 12 1019.9 - 0.0
23/09:30am 20.6 14.6 -1.2 23 9.6 ESE 20 30 11 16 1020.1 - 0.0
23/09:00am 19.8 14.0 -1.3 24 9.1 ESE 19 28 10 15 1020.1 1019.0 0.0
23/08:30am 18.6 12.8 -1.3 26 8.6 ESE 19 28 10 15 1020.1 - 0.0
23/08:00am 17.9 13.0 -0.8 28 8.1 ESE 15 26 8 14 1019.9 - 0.0
23/07:30am 17.1 12.9 -1.1 29 7.7 ESE 11 17 6 9 1019.6 - 0.0
23/07:00am 16.9 12.7 -0.8 30 7.6 ESE 11 15 6 8 1019.4 - 0.0
23/06:30am 17.3 13.5 -0.9 29 7.8 ESE 9 15 5 8 1019.1 - 0.0
23/06:00am 17.6 13.8 -0.6 29 7.8 ESE 9 15 5 8 1018.7 1017.7 0.0
23/05:30am 18.1 13.9 -0.7 28 8.1 ESE 11 15 6 8 1018.5 - 0.0
23/05:00am 18.6 14.0 -0.7 27 8.4 ESE 13 17 7 9 1018.3 - 0.0
23/04:30am 18.8 14.3 -0.1 28 8.3 ESE 13 20 7 11 1018.1 - 0.0
23/04:00am 19.1 14.8 0.7 29 8.3 ESE 13 17 7 9 1018.0 - 0.0
23/03:30am 19.5 15.7 1.5 30 8.3 ESE 11 17 6 9 1018.0 - 0.0
23/03:00am 19.9 15.8 2.3 31 8.2 ESE 13 19 7 10 1018.0 1017.0 0.0
23/02:30am 20.1 16.1 2.9 32 8.1 ESE 13 20 7 11 1018.2 - 0.0
23/02:00am 20.6 16.4 3.8 33 8.1 ESE 15 24 8 13 1018.1 - 0.0
23/01:30am 20.8 16.8 4.8 35 7.9 SE 15 20 8 11 1018.1 - 0.0
23/01:00am 21.2 17.0 5.5 36 7.9 SE 17 26 9 14 1018.2 - 0.0
23/12:30am 21.3 17.2 6.4 38 7.6 SE 17 26 9 14 1018.3 - 0.0
23/12:00am 21.8 18.2 6.9 38 7.7 SSE 15 20 8 11 1018.4 1017.4 0.0
 
Date/Time
CST
Temp
°C
App
Temp
°C
Dew
Point
Rel
Hum
%
Delta-T
°C
Wind Press
QNH
hPa
Press
MSL
hPa
Rain
since 9 am
mm
Dir
 
Spd
km/h
Gust
km/h
Spd
kts
Gust
kts
22/11:30pm 22.3 18.7 6.9 37 8.0 SE 15 22 8 12 1018.4 - 0.0
22/11:00pm 22.9 18.6 7.0 36 8.3 SE 19 26 10 14 1018.5 - 0.0
22/10:30pm 23.5 19.7 7.6 36 8.4 SE 17 28 9 15 1018.4 - 0.0
22/10:00pm 23.6 21.1 8.1 37 8.3 SE 11 17 6 9 1018.4 - 0.0
22/09:30pm 24.2 21.0 8.6 37 8.4 SE 15 20 8 11 1018.2 - 0.0
22/09:00pm 24.6 21.8 10.1 40 8.1 SSE 15 17 8 9 1018.1 1017.1 0.0
22/08:30pm 24.8 23.2 11.4 43 7.6 SE 11 15 6 8 1017.8 - 0.0
22/08:00pm 24.7 23.9 11.6 44 7.5 SE 7 9 4 5 1017.5 - 0.0
22/07:30pm 25.5 24.8 11.3 41 8.1 SE 6 7 3 4 1017.2 - 0.0
22/07:00pm 26.4 25.0 10.9 38 8.8 SE 9 11 5 6 1016.8 - 0.0
22/06:30pm 27.2 25.8 10.8 36 9.4 SE 9 13 5 7 1016.4 - 0.0
22/06:00pm 28.3 26.5 10.9 34 10.0 SE 11 15 6 8 1016.1 1015.0 0.0
22/05:30pm 29.1 26.3 11.2 33 10.4 SE 17 24 9 13 1015.8 - 0.0
22/05:00pm 29.4 26.5 11.0 32 10.6 SE 17 22 9 12 1015.5 - 0.0
22/04:30pm 30.0 27.9 11.0 31 11.0 SE 13 20 7 11 1015.4 - 0.0
22/04:00pm 30.3 28.2 11.3 31 11.1 E 13 20 7 11 1015.4 - 0.0
22/03:30pm 30.3 28.2 11.3 31 11.1 E 13 22 7 12 1015.6 - 0.0
22/03:00pm 30.1 28.0 11.1 31 11.0 SE 13 22 7 12 1015.8 1014.7 0.0
22/02:30pm 30.0 27.1 11.0 31 11.0 E 17 24 9 13 1015.9 - 0.0
22/02:00pm 29.5 26.6 11.1 32 10.7 SE 17 22 9 12 1016.6 - 0.0
22/01:30pm 28.5 26.1 10.2 32 10.4 SE 13 20 7 11 1017.0 - 0.0
22/01:00pm 28.7 25.6 10.4 32 10.4 ENE 17 24 9 13 1017.4 - 0.0
22/12:30pm 27.8 25.4 10.1 33 10.0 ESE 13 22 7 12 1017.7 - 0.0
22/12:00pm 27.0 23.3 9.4 33 9.8 ESE 19 28 10 15 1018.3 1017.3 0.0
22/11:30am 26.4 22.7 9.3 34 9.5 ESE 19 26 10 14 1018.7 - 0.0

Other Formats:

Comma delimited format used in spreadsheet applications
http://www.bom.gov.au/fwo/IDD60801/IDD60801.94225.axf

JavaScript Object Notation format (JSON) in row-major order
http://www.bom.gov.au/fwo/IDD60801/IDD60801.94225.json